Seaexpressii — HO4619 — position and weather

sailwx.info

Track history (hours):
 
Tides and Currents Weather Stations Pressure Air Temp Water Temp Dewpoint Dewpoint Depression Visibility Wind Speed Wind Dir Waves Ship Positions

Seaexpressii

Last reported at 2018-May-25 18:30 UTC. Time now 2018-May-25 18:56 UTC.
Position N 26°04' W 080°07'.

Length 37 m; draft 2 m.

Type: Cargo ship. MMSI: 356449000.

Date/timePositionNaut miles runAvg speedWind from/ knotsBaromVisibWave heightAir tempDewpointWater temp
2018-May-25 18:30N 26°04' W 080°07'1 1.2
2018-May-25 17:59N 26°04' W 080°07'1 2.3
2018-May-25 17:29N 26°04' W 080°08'0 0.1
2018-May-25 16:59N 26°04' W 080°08'0 0.0
2018-May-25 16:29N 26°04' W 080°08'0 0.0
2018-May-25 15:59N 26°04' W 080°08'0 0.0
2018-May-25 15:29N 26°04' W 080°08'0 0.0
2018-May-25 14:59N 26°04' W 080°08'0 0.0
2018-May-25 14:29N 26°04' W 080°08'0 0.0
2018-May-25 13:59N 26°04' W 080°08'0 0.0
2018-May-25 13:30N 26°04' W 080°08'0 0.0
2018-May-25 13:00N 26°04' W 080°08'1 1.0
2018-May-25 12:30N 26°04' W 080°07'2 4.8
2018-May-25 12:01N 26°06' W 080°06'5 9.4
2018-May-25 11:30N 26°05' W 080°00'5 9.9
2018-May-25 11:00N 26°04' W 079°55'510.1
2018-May-25 10:30N 26°03' W 079°50'510.3
2018-May-25 10:00N 26°01' W 079°44'  
2018-May-22 19:08N 26°02' W 079°51'1 6.0
2018-May-22 19:00N 26°02' W 079°52'3 5.9
2018-May-22 18:30N 26°03' W 079°55'3 5.9
2018-May-22 18:00N 26°04' W 079°58'3 6.8
2018-May-22 17:30N 26°05' W 080°02'4 8.1
2018-May-22 17:00N 26°06' W 080°06'3 5.0
2018-May-22 16:30N 26°04' W 080°08'0 0.0
2018-May-22 16:00N 26°04' W 080°08'0 0.1
2018-May-22 15:30N 26°04' W 080°08'0 0.2
2018-May-22 15:00N 26°04' W 080°08'0 0.0
2018-May-22 14:30N 26°04' W 080°08'0 0.0
2018-May-22 14:00N 26°04' W 080°08'0 0.0
2018-May-22 13:30N 26°04' W 080°08'0 0.0
2018-May-22 13:00N 26°04' W 080°08'0 0.0
2018-May-22 12:30N 26°04' W 080°08'0 0.0
2018-May-22 12:00N 26°04' W 080°08'0 0.1
2018-May-22 11:30N 26°04' W 080°08'0 0.0
2018-May-22 11:00N 26°04' W 080°08'0 0.0
2018-May-22 10:30N 26°04' W 080°08'0 0.0
2018-May-22 10:00N 26°04' W 080°08'0 0.0
2018-May-22 09:30N 26°04' W 080°08'0 0.0
2018-May-22 09:00N 26°04' W 080°08'0 0.0
2018-May-22 08:30N 26°04' W 080°08'0 0.0
2018-May-22 08:00N 26°04' W 080°08'0 0.0
2018-May-22 07:30N 26°04' W 080°08'0 0.0
2018-May-22 07:00N 26°04' W 080°08'0 0.0
2018-May-22 06:30N 26°04' W 080°08'0 0.0
2018-May-22 06:00N 26°04' W 080°08'0 0.0
2018-May-22 05:30N 26°04' W 080°08'0 0.0
2018-May-22 05:00N 26°04' W 080°08'0 0.0
2018-May-22 04:30N 26°04' W 080°08'0 0.0
2018-May-22 04:00N 26°04' W 080°08'0 0.0
2018-May-22 03:30N 26°04' W 080°08'0 0.0
2018-May-22 03:00N 26°04' W 080°08'0 0.0
2018-May-22 02:30N 26°04' W 080°08'0 0.0
2018-May-22 02:00N 26°04' W 080°08'0 0.0
2018-May-22 01:30N 26°04' W 080°08'1 2.2
2018-May-22 01:00N 26°04' W 080°07'1 1.9
2018-May-22 00:30N 26°04' W 080°08'0 0.3
2018-May-21 23:58N 26°04' W 080°08'0 0.0
2018-May-21 23:28N 26°04' W 080°08'0 0.0
2018-May-21 22:58N 26°04' W 080°08'0 0.0
2018-May-21 22:28N 26°04' W 080°08'0 0.0
2018-May-21 21:58N 26°04' W 080°08'0 0.0
2018-May-21 21:28N 26°04' W 080°08'0 0.0
2018-May-21 20:58N 26°04' W 080°08'0 0.0
2018-May-21 20:28N 26°04' W 080°08'0 0.0
2018-May-21 19:58N 26°04' W 080°08'0 0.0
2018-May-21 19:28N 26°04' W 080°08'0 0.1
2018-May-21 18:58N 26°04' W 080°08'0 0.0
2018-May-21 18:28N 26°04' W 080°08'0 0.0
2018-May-21 17:58N 26°04' W 080°08'0 0.0
2018-May-21 17:28N 26°04' W 080°08'0 0.0
2018-May-21 16:58N 26°04' W 080°08'0 0.1
2018-May-21 16:28N 26°04' W 080°08'0 0.0
2018-May-21 15:58N 26°04' W 080°08'0 0.0
2018-May-21 15:28N 26°04' W 080°08'0 0.0
2018-May-21 14:58N 26°04' W 080°08'0 0.0
2018-May-21 14:28N 26°04' W 080°08'0 0.0
2018-May-21 13:58N 26°04' W 080°08'0 0.0
2018-May-21 13:28N 26°04' W 080°08'0 0.0
2018-May-21 12:58N 26°04' W 080°08'0 0.0
2018-May-21 12:28N 26°04' W 080°08'0 0.0
2018-May-21 11:58N 26°04' W 080°08'0 0.0
2018-May-21 11:28N 26°04' W 080°08'0 0.0
2018-May-21 10:58N 26°04' W 080°08'0 0.0
2018-May-21 10:28N 26°04' W 080°08'0 0.0
2018-May-21 09:58N 26°04' W 080°08'0 0.0
2018-May-21 09:25N 26°04' W 080°08'0 0.0
2018-May-21 08:58N 26°04' W 080°08'0 0.0
2018-May-21 08:28N 26°04' W 080°08'0 0.0
2018-May-21 07:58N 26°04' W 080°08'0 0.0
2018-May-21 07:28N 26°04' W 080°08'0 0.0
2018-May-21 06:58N 26°04' W 080°08'0 0.0
2018-May-21 06:28N 26°04' W 080°08'0 0.0
2018-May-21 05:58N 26°04' W 080°08'0 0.0
2018-May-21 05:28N 26°04' W 080°08'0 0.0
2018-May-21 04:58N 26°04' W 080°08'0 0.0
2018-May-21 04:28N 26°04' W 080°08'0 0.0
2018-May-21 03:58N 26°04' W 080°08'0 0.0
2018-May-21 03:28N 26°04' W 080°08'0 0.0
2018-May-21 02:58N 26°04' W 080°08'0 0.0
2018-May-21 02:30N 26°04' W 080°08'1 2.6
2018-May-21 02:00N 26°05' W 080°07'1 2.4
2018-May-21 01:30N 26°06' W 080°06'4 7.5
2018-May-21 01:00N 26°05' W 080°02'611.0
2018-May-21 00:29N 26°02' W 079°57'611.3
2018-May-21 00:00N 25°59' W 079°51'17 0.4
2018-May-19 00:40N 26°04' W 079°33'210.5
2018-May-19 00:30N 26°04' W 079°35'510.4
2018-May-19 00:00N 26°03' W 079°41'510.3
2018-May-18 23:30N 26°02' W 079°47'5 9.9
2018-May-18 23:00N 26°01' W 079°52'5 9.4
2018-May-18 22:30N 26°01' W 079°57'4 8.4
2018-May-18 22:00N 26°03' W 080°01'4 8.8
2018-May-18 21:31N 26°06' W 080°05'3 5.6
2018-May-18 21:01N 26°04' W 080°08'0 0.5
2018-May-18 20:28N 26°04' W 080°08'0 0.0
2018-May-18 19:58N 26°04' W 080°08'0 0.0
2018-May-18 19:28N 26°04' W 080°08'0 0.0
2018-May-18 18:58N 26°04' W 080°08'0 0.0
2018-May-18 18:28N 26°04' W 080°08'0 0.0
2018-May-18 17:58N 26°04' W 080°08'0 0.0
2018-May-18 17:28N 26°04' W 080°08'0 0.0
2018-May-18 16:58N 26°04' W 080°08'0 0.0
2018-May-18 16:28N 26°04' W 080°08'0 0.0
2018-May-18 15:58N 26°04' W 080°08'0 0.0
2018-May-18 15:28N 26°04' W 080°08'0 0.0
2018-May-18 14:58N 26°04' W 080°08'0 0.0
2018-May-18 14:30N 26°04' W 080°08'1 2.8
2018-May-18 14:00N 26°05' W 080°07'3 6.2
2018-May-18 13:30N 26°05' W 080°03'510.4
2018-May-18 12:59N 26°03' W 079°58'511.3
2018-May-18 12:30N 26°00' W 079°53'611.7
2018-May-18 12:00N 25°57' W 079°48'611.5
2018-May-18 11:30N 25°53' W 079°42'510.9
2018-May-18 11:00N 25°52' W 079°37'  
2018-May-15 21:08N 26°06' W 079°26'1 9.8
2018-May-15 20:59N 26°06' W 079°28'5 9.5
2018-May-15 20:30N 26°06' W 079°33'5 9.7
2018-May-15 20:00N 26°05' W 079°38'5 9.4
2018-May-15 19:30N 26°05' W 079°44'5 9.5
2018-May-15 19:00N 26°04' W 079°49'  
Track history (hours):
 
Tides and Currents Weather Stations Pressure Air Temp Water Temp Dewpoint Dewpoint Depression Visibility Wind Speed Wind Dir Waves Ship Positions

Seaexpressii

Last reported at 2018-May-25 18:30 UTC. Time now 2018-May-25 18:56 UTC.
Position N 26°04' W 080°07'.

Length 37 m; draft 2 m.

Type: Cargo ship. MMSI: 356449000.

Date/timePositionNaut miles runAvg speedWind from/ knotsBaromVisibWave heightAir tempDewpointWater temp
2018-May-25 18:30N 26°04' W 080°07'1 1.2
2018-May-25 17:59N 26°04' W 080°07'1 2.3
2018-May-25 17:29N 26°04' W 080°08'0 0.1
2018-May-25 16:59N 26°04' W 080°08'0 0.0
2018-May-25 16:29N 26°04' W 080°08'0 0.0
2018-May-25 15:59N 26°04' W 080°08'0 0.0
2018-May-25 15:29N 26°04' W 080°08'0 0.0
2018-May-25 14:59N 26°04' W 080°08'0 0.0
2018-May-25 14:29N 26°04' W 080°08'0 0.0
2018-May-25 13:59N 26°04' W 080°08'0 0.0
2018-May-25 13:30N 26°04' W 080°08'0 0.0
2018-May-25 13:00N 26°04' W 080°08'1 1.0
2018-May-25 12:30N 26°04' W 080°07'2 4.8
2018-May-25 12:01N 26°06' W 080°06'5 9.4
2018-May-25 11:30N 26°05' W 080°00'5 9.9
2018-May-25 11:00N 26°04' W 079°55'510.1
2018-May-25 10:30N 26°03' W 079°50'510.3
2018-May-25 10:00N 26°01' W 079°44'  
2018-May-22 19:08N 26°02' W 079°51'1 6.0
2018-May-22 19:00N 26°02' W 079°52'3 5.9
2018-May-22 18:30N 26°03' W 079°55'3 5.9
2018-May-22 18:00N 26°04' W 079°58'3 6.8
2018-May-22 17:30N 26°05' W 080°02'4 8.1
2018-May-22 17:00N 26°06' W 080°06'3 5.0
2018-May-22 16:30N 26°04' W 080°08'0 0.0
2018-May-22 16:00N 26°04' W 080°08'0 0.1
2018-May-22 15:30N 26°04' W 080°08'0 0.2
2018-May-22 15:00N 26°04' W 080°08'0 0.0
2018-May-22 14:30N 26°04' W 080°08'0 0.0
2018-May-22 14:00N 26°04' W 080°08'0 0.0
2018-May-22 13:30N 26°04' W 080°08'0 0.0
2018-May-22 13:00N 26°04' W 080°08'0 0.0
2018-May-22 12:30N 26°04' W 080°08'0 0.0
2018-May-22 12:00N 26°04' W 080°08'0 0.1
2018-May-22 11:30N 26°04' W 080°08'0 0.0
2018-May-22 11:00N 26°04' W 080°08'0 0.0
2018-May-22 10:30N 26°04' W 080°08'0 0.0
2018-May-22 10:00N 26°04' W 080°08'0 0.0
2018-May-22 09:30N 26°04' W 080°08'0 0.0
2018-May-22 09:00N 26°04' W 080°08'0 0.0
2018-May-22 08:30N 26°04' W 080°08'0 0.0
2018-May-22 08:00N 26°04' W 080°08'0 0.0
2018-May-22 07:30N 26°04' W 080°08'0 0.0
2018-May-22 07:00N 26°04' W 080°08'0 0.0
2018-May-22 06:30N 26°04' W 080°08'0 0.0
2018-May-22 06:00N 26°04' W 080°08'0 0.0
2018-May-22 05:30N 26°04' W 080°08'0 0.0
2018-May-22 05:00N 26°04' W 080°08'0 0.0
2018-May-22 04:30N 26°04' W 080°08'0 0.0
2018-May-22 04:00N 26°04' W 080°08'0 0.0
2018-May-22 03:30N 26°04' W 080°08'0 0.0
2018-May-22 03:00N 26°04' W 080°08'0 0.0
2018-May-22 02:30N 26°04' W 080°08'0 0.0
2018-May-22 02:00N 26°04' W 080°08'0 0.0
2018-May-22 01:30N 26°04' W 080°08'1 2.2
2018-May-22 01:00N 26°04' W 080°07'1 1.9
2018-May-22 00:30N 26°04' W 080°08'0 0.3
2018-May-21 23:58N 26°04' W 080°08'0 0.0
2018-May-21 23:28N 26°04' W 080°08'0 0.0
2018-May-21 22:58N 26°04' W 080°08'0 0.0
2018-May-21 22:28N 26°04' W 080°08'0 0.0
2018-May-21 21:58N 26°04' W 080°08'0 0.0
2018-May-21 21:28N 26°04' W 080°08'0 0.0
2018-May-21 20:58N 26°04' W 080°08'0 0.0
2018-May-21 20:28N 26°04' W 080°08'0 0.0
2018-May-21 19:58N 26°04' W 080°08'0 0.0
2018-May-21 19:28N 26°04' W 080°08'0 0.1
2018-May-21 18:58N 26°04' W 080°08'0 0.0
2018-May-21 18:28N 26°04' W 080°08'0 0.0
2018-May-21 17:58N 26°04' W 080°08'0 0.0
2018-May-21 17:28N 26°04' W 080°08'0 0.0
2018-May-21 16:58N 26°04' W 080°08'0 0.1
2018-May-21 16:28N 26°04' W 080°08'0 0.0
2018-May-21 15:58N 26°04' W 080°08'0 0.0
2018-May-21 15:28N 26°04' W 080°08'0 0.0
2018-May-21 14:58N 26°04' W 080°08'0 0.0
2018-May-21 14:28N 26°04' W 080°08'0 0.0
2018-May-21 13:58N 26°04' W 080°08'0 0.0
2018-May-21 13:28N 26°04' W 080°08'0 0.0
2018-May-21 12:58N 26°04' W 080°08'0 0.0
2018-May-21 12:28N 26°04' W 080°08'0 0.0
2018-May-21 11:58N 26°04' W 080°08'0 0.0
2018-May-21 11:28N 26°04' W 080°08'0 0.0
2018-May-21 10:58N 26°04' W 080°08'0 0.0
2018-May-21 10:28N 26°04' W 080°08'0 0.0
2018-May-21 09:58N 26°04' W 080°08'0 0.0
2018-May-21 09:25N 26°04' W 080°08'0 0.0
2018-May-21 08:58N 26°04' W 080°08'0 0.0
2018-May-21 08:28N 26°04' W 080°08'0 0.0
2018-May-21 07:58N 26°04' W 080°08'0 0.0
2018-May-21 07:28N 26°04' W 080°08'0 0.0
2018-May-21 06:58N 26°04' W 080°08'0 0.0
2018-May-21 06:28N 26°04' W 080°08'0 0.0
2018-May-21 05:58N 26°04' W 080°08'0 0.0
2018-May-21 05:28N 26°04' W 080°08'0 0.0
2018-May-21 04:58N 26°04' W 080°08'0 0.0
2018-May-21 04:28N 26°04' W 080°08'0 0.0
2018-May-21 03:58N 26°04' W 080°08'0 0.0
2018-May-21 03:28N 26°04' W 080°08'0 0.0
2018-May-21 02:58N 26°04' W 080°08'0 0.0
2018-May-21 02:30N 26°04' W 080°08'1 2.6
2018-May-21 02:00N 26°05' W 080°07'1 2.4
2018-May-21 01:30N 26°06' W 080°06'4 7.5
2018-May-21 01:00N 26°05' W 080°02'611.0
2018-May-21 00:29N 26°02' W 079°57'611.3
2018-May-21 00:00N 25°59' W 079°51'17 0.4
2018-May-19 00:40N 26°04' W 079°33'210.5
2018-May-19 00:30N 26°04' W 079°35'510.4
2018-May-19 00:00N 26°03' W 079°41'510.3
2018-May-18 23:30N 26°02' W 079°47'5 9.9
2018-May-18 23:00N 26°01' W 079°52'5 9.4
2018-May-18 22:30N 26°01' W 079°57'4 8.4
2018-May-18 22:00N 26°03' W 080°01'4 8.8
2018-May-18 21:31N 26°06' W 080°05'3 5.6
2018-May-18 21:01N 26°04' W 080°08'0 0.5
2018-May-18 20:28N 26°04' W 080°08'0 0.0
2018-May-18 19:58N 26°04' W 080°08'0 0.0
2018-May-18 19:28N 26°04' W 080°08'0 0.0
2018-May-18 18:58N 26°04' W 080°08'0 0.0
2018-May-18 18:28N 26°04' W 080°08'0 0.0
2018-May-18 17:58N 26°04' W 080°08'0 0.0
2018-May-18 17:28N 26°04' W 080°08'0 0.0
2018-May-18 16:58N 26°04' W 080°08'0 0.0
2018-May-18 16:28N 26°04' W 080°08'0 0.0
2018-May-18 15:58N 26°04' W 080°08'0 0.0
2018-May-18 15:28N 26°04' W 080°08'0 0.0
2018-May-18 14:58N 26°04' W 080°08'0 0.0
2018-May-18 14:30N 26°04' W 080°08'1 2.8
2018-May-18 14:00N 26°05' W 080°07'3 6.2
2018-May-18 13:30N 26°05' W 080°03'510.4
2018-May-18 12:59N 26°03' W 079°58'511.3
2018-May-18 12:30N 26°00' W 079°53'611.7
2018-May-18 12:00N 25°57' W 079°48'611.5
2018-May-18 11:30N 25°53' W 079°42'510.9
2018-May-18 11:00N 25°52' W 079°37'  
2018-May-15 21:08N 26°06' W 079°26'1 9.8
2018-May-15 20:59N 26°06' W 079°28'5 9.5
2018-May-15 20:30N 26°06' W 079°33'5 9.7
2018-May-15 20:00N 26°05' W 079°38'5 9.4
2018-May-15 19:30N 26°05' W 079°44'5 9.5
2018-May-15 19:00N 26°04' W 079°49'  

Dump ship's entire track history